Time;durP1;ratioP1;P1;durP2;ratioP2;P2;SDS_P1;SDS_P2;PMS_P1;PMS_P2;Temp;Humidity;BMP_temperature;BMP_pressure;BME280_temperature;BME280_humidity;BME280_pressure;Samples;Min_cycle;Max_cycle;Signal;HPM_P1;HPM_P2
2023/01/04 00:00:44;;;;;;;22.42;17.77;;;9.20;99.90;;;;;;4015032;29;20151;-87
2023/01/04 00:03:04;;;;;;;17.73;16.02;;;9.20;99.90;;;;;;4015181;29;20091;-87
2023/01/04 00:05:24;;;;;;;18.98;16.92;;;9.20;99.90;;;;;;4027121;29;20051;-87
2023/01/04 00:07:44;;;;;;;21.33;17.35;;;9.20;99.90;;;;;;4026744;29;20297;-87
2023/01/04 00:10:03;;;;;;;20.02;17.92;;;9.30;99.90;;;;;;4014265;29;20098;-87
2023/01/04 00:12:24;;;;;;;20.88;18.70;;;9.30;99.90;;;;;;4013466;29;20382;-87
2023/01/04 00:14:43;;;;;;;21.35;18.33;;;9.40;99.90;;;;;;4013828;29;20061;-87
2023/01/04 00:17:03;;;;;;;21.35;19.20;;;9.40;99.90;;;;;;4014335;29;20061;-87
2023/01/04 00:19:23;;;;;;;25.10;21.60;;;9.40;99.90;;;;;;4014814;29;20049;-87
2023/01/04 00:21:43;;;;;;;28.02;22.90;;;9.40;99.90;;;;;;4014079;29;20048;-88
2023/01/04 00:24:03;;;;;;;21.85;19.50;;;9.40;99.90;;;;;;4014485;29;20236;-88
2023/01/04 00:26:26;;;;;;;23.83;21.33;;;9.30;99.90;;;;;;4014635;29;20113;-87
2023/01/04 00:28:47;;;;;;;26.33;23.50;;;9.30;99.90;;;;;;4014685;29;20078;-88
2023/01/04 00:31:14;;;;;;;36.92;27.17;;;9.30;99.90;;;;;;4014744;29;20041;-87
2023/01/04 00:33:35;;;;;;;33.17;27.70;;;9.30;99.90;;;;;;4023933;29;20100;-88
2023/01/04 00:35:55;;;;;;;35.92;27.98;;;9.20;99.90;;;;;;4019253;29;20048;-87
2023/01/04 00:38:15;;;;;;;35.92;30.55;;;9.30;99.90;;;;;;4013941;29;20044;-88
2023/01/04 00:40:35;;;;;;;35.83;28.58;;;9.30;99.90;;;;;;4014726;29;20065;-88
2023/01/04 00:42:54;;;;;;;36.05;30.63;;;9.40;99.90;;;;;;4026382;29;20052;-87
2023/01/04 00:45:14;;;;;;;35.85;30.65;;;9.40;99.90;;;;;;4015099;29;20109;-87
2023/01/04 00:47:33;;;;;;;33.13;29.52;;;9.40;99.90;;;;;;4014600;29;20371;-87
2023/01/04 00:49:53;;;;;;;33.20;25.92;;;9.40;99.90;;;;;;4013889;29;20090;-87
2023/01/04 00:52:13;;;;;;;27.35;24.48;;;9.30;99.90;;;;;;4013522;29;20053;-87
2023/01/04 00:54:33;;;;;;;27.30;24.50;;;9.30;99.90;;;;;;4015157;29;20449;-87
2023/01/04 00:56:54;;;;;;;30.88;24.70;;;9.20;99.90;;;;;;4014252;29;20089;-88
2023/01/04 00:59:16;;;;;;;30.00;24.83;;;9.20;99.90;;;;;;4014538;29;20040;-87
2023/01/04 01:01:38;;;;;;;27.48;24.30;;;9.10;99.90;;;;;;4013637;29;20106;-87
2023/01/04 01:04:00;;;;;;;28.95;24.58;;;9.20;99.90;;;;;;4026657;29;20061;-87
2023/01/04 01:06:21;;;;;;;27.27;23.75;;;9.20;99.90;;;;;;4012875;29;20049;-88
2023/01/04 01:08:40;;;;;;;26.83;23.15;;;9.20;99.90;;;;;;4014960;29;20060;-87
2023/01/04 01:11:07;;;;;;;27.23;24.45;;;9.10;99.90;;;;;;4017148;29;20375;-87
2023/01/04 01:13:27;;;;;;;30.55;25.95;;;9.20;99.90;;;;;;4028802;29;20132;-87
2023/01/04 01:15:47;;;;;;;32.60;26.27;;;9.30;99.90;;;;;;4017961;29;20053;-87
2023/01/04 01:18:07;;;;;;;28.35;25.30;;;9.20;99.90;;;;;;4016011;29;20086;-88
2023/01/04 01:20:27;;;;;;;34.83;27.35;;;9.10;99.90;;;;;;4016636;29;20380;-88
2023/01/04 01:22:47;;;;;;;31.48;27.75;;;9.00;99.90;;;;;;4017030;29;20061;-87
2023/01/04 01:25:07;;;;;;;35.75;29.83;;;8.90;99.90;;;;;;4016626;29;20084;-88
2023/01/04 01:27:27;;;;;;;44.35;31.63;;;8.90;99.90;;;;;;4016040;29;20137;-87
2023/01/04 01:29:47;;;;;;;41.63;32.92;;;8.90;99.90;;;;;;4016251;29;20269;-88
2023/01/04 01:32:07;;;;;;;47.15;35.60;;;8.90;99.90;;;;;;4018526;29;20064;-87
2023/01/04 01:34:27;;;;;;;49.35;37.25;;;8.90;99.90;;;;;;4015918;29;20113;-88
2023/01/04 01:36:47;;;;;;;37.78;31.48;;;8.90;99.90;;;;;;4015178;29;20158;-88
2023/01/04 01:39:07;;;;;;;39.80;32.85;;;9.00;99.90;;;;;;4014566;29;20071;-88
2023/01/04 01:41:30;;;;;;;36.67;27.25;;;9.00;99.90;;;;;;4015031;29;20394;-88
2023/01/04 01:44:05;;;;;;;33.20;27.50;;;8.90;99.90;;;;;;4016513;29;20061;-87
2023/01/04 01:46:39;;;;;;;31.17;27.13;;;8.80;99.90;;;;;;4016913;29;20429;-87
2023/01/04 01:49:25;;;;;;;38.92;31.88;;;8.90;99.90;;;;;;4016133;29;20082;-87
2023/01/04 01:51:45;;;;;;;42.80;32.90;;;8.90;99.90;;;;;;4015196;29;20102;-87
2023/01/04 01:54:19;;;;;;;35.72;29.95;;;9.00;99.90;;;;;;4016459;29;20422;-87
2023/01/04 01:56:42;;;;;;;37.53;30.33;;;9.00;99.90;;;;;;4016598;29;20053;-88
2023/01/04 01:59:03;;;;;;;35.55;30.40;;;8.90;99.90;;;;;;4016049;29;20278;-87
2023/01/04 02:01:24;;;;;;;40.17;30.15;;;8.90;99.90;;;;;;4015157;29;20117;-87
2023/01/04 02:03:44;;;;;;;36.65;30.88;;;9.00;99.90;;;;;;4009761;29;20074;-87
2023/01/04 02:06:08;;;;;;;42.88;31.48;;;9.00;99.90;;;;;;4007393;29;20130;-87
2023/01/04 02:08:29;;;;;;;34.60;31.00;;;9.00;99.90;;;;;;4016215;29;20044;-87
2023/01/04 02:10:49;;;;;;;38.92;31.08;;;9.00;99.90;;;;;;4016442;29;20090;-87
2023/01/04 02:13:13;;;;;;;38.03;30.13;;;9.00;99.90;;;;;;4016495;29;20076;-88
2023/01/04 02:15:47;;;;;;;34.65;29.80;;;8.90;99.90;;;;;;4016384;29;20053;-87
2023/01/04 02:18:14;;;;;;;36.10;29.48;;;8.90;99.90;;;;;;4015066;29;20094;-88
2023/01/04 02:20:43;;;;;;;38.97;31.73;;;8.90;99.90;;;;;;4016035;29;20085;-88
2023/01/04 02:23:48;;;;;;;37.55;30.35;;;9.00;99.90;;;;;;4014790;29;20054;-88
2023/01/04 02:26:27;;;;;;;38.63;31.10;;;9.00;99.90;;;;;;4015575;29;20053;-87
2023/01/04 02:28:53;;;;;;;39.63;31.75;;;9.00;99.90;;;;;;4016081;29;20045;-87
2023/01/04 02:31:44;;;;;;;37.10;30.98;;;9.00;99.90;;;;;;4015998;29;20094;-87
2023/01/04 02:34:22;;;;;;;46.05;30.70;;;9.10;99.90;;;;;;4015872;29;20071;-88
2023/01/04 02:37:00;;;;;;;39.25;32.97;;;9.00;99.90;;;;;;4028763;29;20093;-87
2023/01/04 02:39:47;;;;;;;35.22;30.20;;;9.00;99.90;;;;;;4015626;29;20237;-88
2023/01/04 02:45:16;;;;;;;41.60;33.08;;;9.00;99.90;;;;;;4015471;29;20084;-87
2023/01/04 02:50:29;;;;;;;40.38;31.52;;;9.00;99.90;;;;;;4015606;29;20279;-87
2023/01/04 02:52:49;;;;;;;43.13;35.20;;;9.00;99.90;;;;;;4015996;29;20057;-87
2023/01/04 02:55:09;;;;;;;41.15;33.85;;;8.90;99.90;;;;;;4015587;29;20117;-87
2023/01/04 02:57:55;;;;;;;41.28;34.28;;;8.90;99.90;;;;;;4015161;29;20350;-88
2023/01/04 03:00:22;;;;;;;48.83;36.65;;;8.90;99.90;;;;;;4016044;29;20063;-87
2023/01/04 03:06:15;;;;;;;41.80;32.38;;;8.80;99.90;;;;;;4015444;29;20049;-87
2023/01/04 03:08:45;;;;;;;43.45;33.42;;;8.80;99.90;;;;;;4013997;29;20045;-87
2023/01/04 03:13:55;;;;;;;50.05;34.58;;;8.80;99.90;;;;;;4015430;29;20061;-87
2023/01/04 03:16:20;;;;;;;40.20;34.45;;;8.90;99.90;;;;;;4015607;29;20052;-87
2023/01/04 03:18:45;;;;;;;38.97;33.72;;;8.90;99.90;;;;;;4015128;29;20061;-87
2023/01/04 03:21:08;;;;;;;44.05;34.83;;;8.90;99.90;;;;;;4015524;29;20049;-87
2023/01/04 03:35:54;;;;;;;37.25;30.17;;;8.70;99.90;;;;;;4014994;29;20098;-87
2023/01/04 03:49:59;;;;;;;33.00;26.92;;;8.80;99.90;;;;;;4015012;29;20104;-87
2023/01/04 03:52:20;;;;;;;33.38;28.52;;;8.80;99.90;;;;;;4015092;29;20113;-87
2023/01/04 03:54:47;;;;;;;36.75;28.98;;;8.80;99.90;;;;;;4014828;29;20053;-87
2023/01/04 03:57:08;;;;;;;34.92;28.88;;;8.70;99.90;;;;;;4007014;29;20083;-87
2023/01/04 03:59:28;;;;;;;33.72;28.40;;;8.80;99.90;;;;;;4015205;29;20148;-87
2023/01/04 04:01:48;;;;;;;35.30;28.05;;;8.80;99.90;;;;;;4014563;29;20049;-87
2023/01/04 04:09:27;;;;;;;35.45;27.67;;;8.80;99.90;;;;;;4014855;29;20052;-87
2023/01/04 04:11:47;;;;;;;35.78;29.13;;;8.80;99.90;;;;;;4014021;29;20277;-87
2023/01/04 04:14:08;;;;;;;36.65;30.13;;;8.80;99.90;;;;;;4013173;29;20053;-87
2023/01/04 04:16:28;;;;;;;35.25;29.52;;;8.80;99.90;;;;;;4013433;29;20092;-88
2023/01/04 04:18:48;;;;;;;35.30;29.40;;;8.80;99.90;;;;;;4015132;29;20053;-88
2023/01/04 04:21:08;;;;;;;33.95;28.23;;;8.80;99.90;;;;;;4014404;29;20053;-88
2023/01/04 04:23:28;;;;;;;29.80;24.13;;;8.80;99.90;;;;;;4014925;29;20076;-88
2023/01/04 04:25:48;;;;;;;27.23;24.52;;;8.80;99.90;;;;;;4012860;29;20091;-88
2023/01/04 04:28:08;;;;;;;28.85;25.70;;;8.80;99.90;;;;;;4014672;29;20065;-88
2023/01/04 04:30:28;;;;;;;26.60;23.35;;;8.80;99.90;;;;;;4014612;29;20060;-87
2023/01/04 04:32:48;;;;;;;24.60;22.10;;;8.80;99.90;;;;;;4014801;29;20122;-88
2023/01/04 04:35:08;;;;;;;29.75;24.65;;;8.80;99.90;;;;;;4026782;29;20101;-87
2023/01/04 04:37:30;;;;;;;29.58;22.67;;;8.80;99.90;;;;;;4014607;29;20064;-87
2023/01/04 04:39:50;;;;;;;31.48;22.90;;;8.80;99.90;;;;;;4002938;29;20053;-88
2023/01/04 04:42:10;;;;;;;28.40;24.50;;;8.80;99.90;;;;;;4013619;29;20241;-87
2023/01/04 04:44:30;;;;;;;32.47;26.48;;;8.70;99.90;;;;;;4014485;29;20383;-87
2023/01/04 04:46:50;;;;;;;40.08;27.27;;;8.80;99.90;;;;;;4013990;29;20057;-87
2023/01/04 04:49:12;;;;;;;37.08;27.33;;;8.80;99.90;;;;;;4014527;29;20093;-87
2023/01/04 04:51:32;;;;;;;32.63;27.33;;;8.70;99.90;;;;;;4013445;29;20052;-88
2023/01/04 04:53:52;;;;;;;32.67;25.60;;;8.70;99.90;;;;;;4014056;29;20095;-87
2023/01/04 04:56:12;;;;;;;28.67;25.35;;;8.70;99.90;;;;;;4026515;29;20056;-87
2023/01/04 04:58:32;;;;;;;29.67;25.20;;;8.70;99.90;;;;;;4014512;29;20114;-88
2023/01/04 05:00:52;;;;;;;30.13;25.15;;;8.80;99.90;;;;;;4014585;29;20082;-88
2023/01/04 05:03:12;;;;;;;25.13;22.40;;;8.80;99.90;;;;;;4026409;29;20101;-87
2023/01/04 05:05:32;;;;;;;29.83;22.80;;;8.80;99.90;;;;;;4014552;29;20088;-88
2023/01/04 05:07:52;;;;;;;26.38;21.77;;;8.80;99.90;;;;;;4012390;29;20053;-87
2023/01/04 05:10:12;;;;;;;29.48;23.67;;;8.80;99.90;;;;;;4011877;29;20116;-87
2023/01/04 05:15:17;;;;;;;28.83;23.98;;;8.80;99.90;;;;;;4014166;29;20375;-88
2023/01/04 05:17:37;;;;;;;33.60;25.38;;;8.80;99.90;;;;;;4012679;29;20065;-87
2023/01/04 05:19:56;;;;;;;29.98;24.92;;;8.70;99.90;;;;;;4002038;29;20097;-87
2023/01/04 05:22:16;;;;;;;26.85;23.35;;;8.80;99.90;;;;;;4014124;29;20075;-88
2023/01/04 05:24:35;;;;;;;24.45;21.73;;;8.70;99.90;;;;;;4014351;29;20056;-88
2023/01/04 05:26:55;;;;;;;26.25;23.25;;;8.70;99.90;;;;;;4014288;29;20061;-88
2023/01/04 05:31:54;;;;;;;24.35;21.88;;;8.70;99.90;;;;;;4013528;29;20072;-88
2023/01/04 05:34:14;;;;;;;33.88;24.50;;;8.70;99.90;;;;;;4014185;29;20049;-87
2023/01/04 05:36:41;;;;;;;28.40;24.52;;;8.80;99.90;;;;;;4013112;29;20053;-88
2023/01/04 05:39:01;;;;;;;25.17;22.17;;;8.70;99.90;;;;;;4012783;29;20117;-88
2023/01/04 05:44:00;;;;;;;25.40;22.67;;;8.70;99.90;;;;;;4013318;29;20084;-88
2023/01/04 05:46:21;;;;;;;23.42;21.08;;;8.60;99.90;;;;;;4011980;29;20095;-88
2023/01/04 05:48:40;;;;;;;26.20;23.55;;;8.60;99.90;;;;;;4012403;29;20158;-87
2023/01/04 05:51:00;;;;;;;28.70;23.52;;;8.60;99.90;;;;;;4014818;29;20086;-88
2023/01/04 05:53:20;;;;;;;25.85;23.27;;;8.60;99.90;;;;;;4014468;29;20083;-88
2023/01/04 05:55:40;;;;;;;23.33;20.85;;;8.60;99.90;;;;;;4016747;29;20223;-88
2023/01/04 05:58:00;;;;;;;22.48;20.35;;;8.60;99.90;;;;;;4015652;29;20132;-87
2023/01/04 06:00:20;;;;;;;23.98;20.13;;;8.60;99.90;;;;;;4016605;29;20072;-88
2023/01/04 06:02:41;;;;;;;22.00;19.50;;;8.60;99.90;;;;;;4015971;29;20053;-88
2023/01/04 06:05:01;;;;;;;21.65;19.20;;;8.70;99.90;;;;;;4027441;29;20060;-88
2023/01/04 06:07:22;;;;;;;21.95;19.70;;;8.70;99.90;;;;;;4016551;29;20236;-88
2023/01/04 06:09:42;;;;;;;23.73;21.20;;;8.80;99.90;;;;;;4015827;29;20061;-87
2023/01/04 06:12:03;;;;;;;24.38;21.58;;;8.70;99.90;;;;;;4015746;29;20053;-87
2023/01/04 06:14:23;;;;;;;23.27;20.05;;;8.70;99.90;;;;;;4028374;29;20324;-87
2023/01/04 06:16:43;;;;;;;25.63;23.00;;;8.80;99.90;;;;;;4016463;29;20057;-87
2023/01/04 06:19:03;;;;;;;27.63;24.42;;;8.70;99.90;;;;;;4014914;29;20086;-87
2023/01/04 06:21:26;;;;;;;38.67;33.00;;;8.80;99.90;;;;;;4016226;29;20092;-88
2023/01/04 06:23:45;;;;;;;;;;;8.80;99.90;;;;;;4016712;29;20045;-87
2023/01/04 06:26:05;;;;;;;121.55;95.70;;;8.70;99.90;;;;;;4014963;29;19999;-87
2023/01/04 06:28:25;;;;;;;97.80;76.13;;;8.80;99.90;;;;;;4015339;29;20057;-87
2023/01/04 06:30:45;;;;;;;73.72;60.63;;;8.80;99.90;;;;;;4016149;29;20143;-87
2023/01/04 06:33:05;;;;;;;54.58;42.20;;;8.80;99.90;;;;;;4016174;29;20052;-87
2023/01/04 06:35:26;;;;;;;31.75;28.33;;;8.80;99.90;;;;;;4015666;29;20073;-87
2023/01/04 06:37:46;;;;;;;30.50;26.23;;;8.80;99.90;;;;;;4016241;29;20082;-87
2023/01/04 06:40:07;;;;;;;31.73;27.33;;;8.80;99.90;;;;;;4016209;29;20094;-87
2023/01/04 06:42:45;;;;;;;33.25;25.50;;;8.80;99.90;;;;;;4026782;29;20396;-87
2023/01/04 06:45:05;;;;;;;26.15;21.40;;;8.80;99.90;;;;;;4014579;29;20061;-87
2023/01/04 06:47:25;;;;;;;32.72;22.17;;;8.70;99.90;;;;;;4015412;29;20053;-87
2023/01/04 06:49:45;;;;;;;25.08;22.27;;;8.60;99.90;;;;;;4015996;29;20052;-87
2023/01/04 06:52:05;;;;;;;24.23;21.85;;;8.70;99.90;;;;;;4015900;29;20371;-87
2023/01/04 06:54:24;;;;;;;28.55;22.30;;;8.70;99.90;;;;;;4016030;29;20049;-87
2023/01/04 06:56:44;;;;;;;26.30;22.58;;;8.70;99.90;;;;;;4015613;29;20125;-90
2023/01/04 06:59:05;;;;;;;56.03;43.50;;;8.70;99.90;;;;;;4013938;29;20086;-90
2023/01/04 07:01:25;;;;;;;35.42;31.05;;;8.70;99.90;;;;;;4015393;29;20074;-90
2023/01/04 07:03:45;;;;;;;38.67;32.15;;;8.60;99.90;;;;;;4021631;29;20106;-91
2023/01/04 07:06:06;;;;;;;42.42;33.85;;;8.60;99.90;;;;;;4014370;29;20325;-90
2023/01/04 07:08:26;;;;;;;47.72;35.15;;;8.60;99.90;;;;;;4015742;29;20113;-91
2023/01/04 07:10:46;;;;;;;50.75;36.28;;;8.60;99.90;;;;;;4015680;29;20072;-91
2023/01/04 07:13:07;;;;;;;37.40;31.35;;;8.60;99.90;;;;;;4014973;29;20385;-91
2023/01/04 07:15:27;;;;;;;45.53;39.60;;;8.60;99.90;;;;;;4015695;29;20131;-91
2023/01/04 07:17:59;;;;;;;39.05;32.90;;;8.70;99.90;;;;;;4020641;29;20282;-91
2023/01/04 07:20:19;;;;;;;37.67;33.78;;;8.60;99.90;;;;;;4014466;29;20118;-91
2023/01/04 07:22:39;;;;;;;30.63;26.85;;;8.70;99.90;;;;;;4014248;29;20101;-91
2023/01/04 07:24:58;;;;;;;32.83;28.20;;;8.70;99.90;;;;;;4006254;29;20060;-91
2023/01/04 07:27:18;;;;;;;35.92;24.80;;;8.60;99.90;;;;;;4027595;29;20097;-91
2023/01/04 07:29:42;;;;;;;35.83;30.90;;;8.60;99.90;;;;;;4015088;29;20088;-90
2023/01/04 07:32:03;;;;;;;33.63;30.17;;;8.70;99.90;;;;;;4013972;29;20089;-90
2023/01/04 07:34:30;;;;;;;49.65;30.30;;;8.70;99.90;;;;;;4007236;29;20244;-90
2023/01/04 07:36:50;;;;;;;34.65;26.95;;;8.60;99.90;;;;;;4015207;29;20098;-91
2023/01/04 07:39:11;;;;;;;35.75;28.85;;;8.60;99.90;;;;;;4015051;29;20071;-90
2023/01/04 07:41:31;;;;;;;31.20;24.92;;;8.70;99.90;;;;;;4015120;29;20245;-90
2023/01/04 07:43:51;;;;;;;24.75;22.35;;;8.70;99.90;;;;;;4014673;29;20090;-91
2023/01/04 07:46:10;;;;;;;30.70;25.48;;;8.70;99.90;;;;;;4014071;29;20098;-91
2023/01/04 07:48:31;;;;;;;35.90;27.85;;;8.60;99.90;;;;;;4007474;29;20054;-90
2023/01/04 07:50:50;;;;;;;52.22;32.60;;;8.70;99.90;;;;;;4013580;29;20102;-90
2023/01/04 07:53:11;;;;;;;53.67;33.97;;;8.70;99.90;;;;;;4014330;29;20155;-90
2023/01/04 07:55:31;;;;;;;50.88;33.55;;;8.80;99.90;;;;;;4013724;29;20090;-91
2023/01/04 07:57:53;;;;;;;48.95;34.05;;;8.80;99.90;;;;;;4014245;29;20106;-90
2023/01/04 08:00:13;;;;;;;45.03;31.88;;;8.80;99.90;;;;;;4014690;29;20090;-90
2023/01/04 08:02:33;;;;;;;45.38;31.25;;;8.80;99.90;;;;;;4014956;29;20387;-91
2023/01/04 08:04:55;;;;;;;36.35;32.28;;;8.80;99.90;;;;;;4015149;29;20070;-91
2023/01/04 08:07:16;;;;;;;42.07;30.13;;;8.80;99.90;;;;;;4013784;29;20064;-91
2023/01/04 08:09:35;;;;;;;43.53;31.33;;;8.90;99.90;;;;;;4015066;29;20052;-90
2023/01/04 08:11:56;;;;;;;43.15;33.15;;;8.90;99.90;;;;;;4015013;29;20106;-91
2023/01/04 08:14:15;;;;;;;38.17;30.40;;;9.00;99.90;;;;;;4013857;29;20084;-90
2023/01/04 08:16:37;;;;;;;34.00;30.38;;;9.00;99.90;;;;;;4013445;29;20049;-91
2023/01/04 08:19:00;;;;;;;43.78;33.17;;;9.00;99.90;;;;;;4001706;29;20088;-90
2023/01/04 08:21:22;;;;;;;44.75;35.40;;;9.00;99.90;;;;;;4013232;29;20098;-91
2023/01/04 08:23:41;;;;;;;45.92;39.05;;;9.00;99.90;;;;;;4014976;29;20117;-90
2023/01/04 08:26:03;;;;;;;39.78;34.28;;;9.00;99.90;;;;;;4014436;29;20060;-90
2023/01/04 08:28:24;;;;;;;38.58;31.15;;;9.10;99.90;;;;;;4014885;29;20069;-90
2023/01/04 08:30:44;;;;;;;37.03;30.95;;;9.10;99.90;;;;;;4014641;29;20056;-91
2023/01/04 08:33:13;;;;;;;47.17;31.08;;;9.10;99.90;;;;;;4013611;29;20048;-91
2023/01/04 08:35:33;;;;;;;32.10;27.17;;;9.10;99.90;;;;;;4014088;29;20278;-90
2023/01/04 08:37:53;;;;;;;32.22;28.75;;;9.20;99.90;;;;;;4013689;29;20233;-90
2023/01/04 08:40:13;;;;;;;35.22;28.88;;;9.20;99.90;;;;;;4013799;29;20057;-91
2023/01/04 08:42:32;;;;;;;36.95;29.77;;;9.20;99.90;;;;;;4014407;29;20045;-91
2023/01/04 08:44:52;;;;;;;32.75;28.17;;;9.30;99.90;;;;;;4012335;29;20049;-91
2023/01/04 08:47:19;;;;;;;37.70;27.38;;;9.30;99.90;;;;;;4013167;29;20057;-90
2023/01/04 08:49:38;;;;;;;31.65;28.25;;;9.30;99.90;;;;;;4014217;29;20170;-90
2023/01/04 08:51:58;;;;;;;33.63;29.73;;;9.40;99.90;;;;;;4013467;29;20380;-90
2023/01/04 08:54:18;;;;;;;36.95;31.83;;;9.50;99.90;;;;;;4026093;29;20053;-90
2023/01/04 08:56:38;;;;;;;34.80;30.92;;;9.50;99.90;;;;;;4013471;29;20105;-90
2023/01/04 08:58:59;;;;;;;48.10;32.97;;;9.60;99.90;;;;;;4014677;29;20052;-90
2023/01/04 09:01:18;;;;;;;34.83;29.83;;;9.70;99.90;;;;;;4014419;29;20060;-91
2023/01/04 09:03:38;;;;;;;30.27;27.05;;;9.80;99.90;;;;;;4014438;29;20118;-90
2023/01/04 09:06:07;;;;;;;41.72;34.60;;;9.80;99.90;;;;;;4012033;29;20086;-91
2023/01/04 09:08:29;;;;;;;41.33;32.42;;;9.80;99.90;;;;;;4016909;29;20080;-91
2023/01/04 09:10:48;;;;;;;36.70;31.83;;;9.80;99.90;;;;;;4013217;29;20057;-90
2023/01/04 09:13:08;;;;;;;37.97;32.55;;;9.80;99.90;;;;;;4012637;29;20391;-91
2023/01/04 09:15:28;;;;;;;55.58;44.88;;;9.90;99.90;;;;;;4014180;29;20082;-91
2023/01/04 09:17:49;;;;;;;48.45;37.80;;;10.00;99.90;;;;;;4005887;29;20379;-91
2023/01/04 09:20:29;;;;;;;40.00;34.25;;;10.00;99.90;;;;;;4013919;29;20057;-91
2023/01/04 09:22:49;;;;;;;41.63;34.25;;;10.00;99.90;;;;;;4025579;29;20048;-91
2023/01/04 09:25:09;;;;;;;35.78;31.85;;;10.00;99.90;;;;;;4013350;29;20065;-90
2023/01/04 09:27:31;;;;;;;35.25;29.83;;;10.10;99.90;;;;;;4013859;29;20103;-91
2023/01/04 09:29:51;;;;;;;37.63;31.27;;;10.10;99.90;;;;;;4016474;29;20083;-90
2023/01/04 09:32:11;;;;;;;33.25;27.85;;;10.20;99.90;;;;;;4015808;29;20301;-90
2023/01/04 09:34:36;;;;;;;27.98;25.08;;;10.30;99.90;;;;;;4016081;29;20105;-91
2023/01/04 09:36:55;;;;;;;32.38;28.70;;;10.40;99.90;;;;;;4015775;29;20060;-91
2023/01/04 09:39:16;;;;;;;33.63;27.05;;;10.40;99.90;;;;;;4016261;29;20044;-90
2023/01/04 09:41:52;;;;;;;30.98;27.27;;;10.40;99.90;;;;;;4016422;29;20071;-90
2023/01/04 09:45:00;;;;;;;30.83;26.17;;;10.40;99.90;;;;;;4016754;29;20064;-91
2023/01/04 09:48:03;;;;;;;40.97;32.53;;;10.50;99.90;;;;;;4015882;29;20405;-90
2023/01/04 09:50:28;;;;;;;26.60;23.43;;;10.60;99.90;;;;;;4018822;29;20052;-91
2023/01/04 09:53:16;;;;;;;29.88;26.35;;;10.60;99.90;;;;;;4014367;29;20056;-91
2023/01/04 09:55:49;;;;;;;29.20;25.88;;;10.80;99.90;;;;;;4016871;29;20233;-91
2023/01/04 09:58:25;;;;;;;25.73;20.67;;;11.10;99.90;;;;;;4021382;29;20098;-91
2023/01/04 10:01:00;;;;;;;29.77;25.88;;;11.40;99.90;;;;;;4028817;29;20056;-91
2023/01/04 10:03:28;;;;;;;49.88;36.08;;;11.50;99.90;;;;;;4016501;29;20372;-90
2023/01/04 10:05:48;;;;;;;48.58;38.05;;;11.50;99.90;;;;;;4028747;29;20057;-91
2023/01/04 10:08:18;;;;;;;61.03;45.30;;;11.60;99.90;;;;;;4016728;29;20045;-92
2023/01/04 10:11:16;;;;;;;52.28;40.97;;;11.50;99.90;;;;;;4016074;29;20070;-91
2023/01/04 10:13:56;;;;;;;46.55;36.15;;;11.50;99.90;;;;;;3966885;30;20404;-91
2023/01/04 10:16:31;;;;;;;43.13;31.92;;;11.60;99.90;;;;;;3961288;30;20270;-91
2023/01/04 10:19:20;;;;;;;42.00;31.73;;;11.80;99.90;;;;;;4008864;29;20110;-90
2023/01/04 10:22:18;;;;;;;25.20;22.73;;;12.20;99.90;;;;;;4010850;29;20044;-90
2023/01/04 10:25:02;;;;;;;31.33;25.25;;;12.10;99.90;;;;;;4015989;29;20103;-90
2023/01/04 10:27:28;;;;;;;27.17;24.55;;;12.30;99.90;;;;;;4004167;29;20089;-90
2023/01/04 10:30:08;;;;;;;28.08;25.20;;;12.60;99.90;;;;;;4016091;29;20064;-90
2023/01/04 10:32:43;;;;;;;27.73;24.45;;;12.50;99.90;;;;;;4001652;29;20115;-90
2023/01/04 10:35:17;;;;;;;28.25;25.38;;;12.60;99.90;;;;;;4016322;29;20072;-90
2023/01/04 10:37:37;;;;;;;30.70;22.92;;;12.50;99.90;;;;;;4015150;29;20061;-90
2023/01/04 10:39:57;;;;;;;30.33;24.25;;;12.40;99.90;;;;;;4013819;29;20056;-91
2023/01/04 10:42:19;;;;;;;25.38;22.83;;;12.10;99.90;;;;;;4016246;29;20064;-92
2023/01/04 10:44:58;;;;;;;24.83;22.55;;;12.30;99.90;;;;;;4015017;29;20061;-92
2023/01/04 10:47:42;;;;;;;24.60;22.23;;;12.30;99.90;;;;;;4015975;29;20049;-92
2023/01/04 10:50:25;;;;;;;26.13;21.05;;;12.20;99.90;;;;;;4027740;29;20048;-91
2023/01/04 10:53:16;;;;;;;26.63;21.70;;;12.20;99.90;;;;;;4014965;29;20121;-91
2023/01/04 10:55:49;;;;;;;29.77;23.23;;;12.10;99.90;;;;;;4003703;29;20080;-91
2023/01/04 10:58:50;;;;;;;25.40;22.75;;;12.10;99.90;;;;;;4015821;29;20053;-91
2023/01/04 11:01:19;;;;;;;31.08;21.98;;;12.30;99.90;;;;;;4014744;29;20082;-92
2023/01/04 11:03:42;;;;;;;39.80;27.92;;;12.20;99.90;;;;;;4014356;29;20128;-92
2023/01/04 11:06:23;;;;;;;25.77;22.83;;;12.20;99.90;;;;;;4015443;29;20053;-91
2023/01/04 11:08:49;;;;;;;32.20;25.15;;;12.20;99.90;;;;;;4027707;29;20048;-92
2023/01/04 11:11:15;;;;;;;35.33;23.23;;;12.30;99.90;;;;;;4010742;29;20435;-91
2023/01/04 11:13:34;;;;;;;35.45;22.90;;;12.40;99.90;;;;;;4027551;29;20044;-91
2023/01/04 11:15:54;;;;;;;29.90;24.85;;;12.50;99.90;;;;;;4016572;29;20085;-91
2023/01/04 11:18:15;;;;;;;27.25;24.10;;;12.60;99.90;;;;;;4015703;29;20277;-91
2023/01/04 11:20:36;;;;;;;30.67;23.42;;;12.90;99.90;;;;;;4014660;29;20094;-91
2023/01/04 11:23:10;;;;;;;41.70;29.02;;;13.20;99.90;;;;;;4026964;29;20329;-90
2023/01/04 11:25:36;;;;;;;26.77;22.77;;;13.30;99.90;;;;;;4013999;29;20057;-91
2023/01/04 11:28:15;;;;;;;16.05;14.65;;;13.40;99.90;;;;;;4015042;29;20094;-91
2023/01/04 11:30:46;;;;;;;18.38;16.45;;;13.30;99.90;;;;;;4027592;29;20052;-91
2023/01/04 11:33:16;;;;;;;13.60;12.60;;;13.50;99.90;;;;;;4014835;29;20067;-91
2023/01/04 11:35:40;;;;;;;17.50;13.45;;;13.50;99.90;;;;;;4015321;29;20069;-91
2023/01/04 11:38:20;;;;;;;11.73;10.75;;;13.50;99.90;;;;;;4015616;29;20070;-91
2023/01/04 11:40:41;;;;;;;10.82;10.13;;;13.40;99.90;;;;;;4014860;29;20104;-91
2023/01/04 11:43:17;;;;;;;12.98;11.60;;;13.30;99.90;;;;;;4015463;29;20409;-92
2023/01/04 11:45:37;;;;;;;11.63;10.57;;;13.30;99.90;;;;;;4027194;29;20093;-91
2023/01/04 11:47:59;;;;;;;12.50;11.35;;;13.30;99.90;;;;;;4019149;29;20110;-92
2023/01/04 11:50:35;;;;;;;11.33;10.50;;;13.20;99.90;;;;;;4015033;29;20378;-92
2023/01/04 11:52:55;;;;;;;11.88;10.75;;;13.40;99.90;;;;;;4015023;29;20063;-91
2023/01/04 11:55:29;;;;;;;14.80;12.57;;;13.50;99.90;;;;;;4015336;29;20090;-91
2023/01/04 11:58:07;;;;;;;11.50;10.07;;;13.40;99.90;;;;;;4007542;29;20356;-91
2023/01/04 12:00:27;;;;;;;10.68;9.75;;;13.20;99.90;;;;;;4014393;29;20121;-91
2023/01/04 12:02:46;;;;;;;12.00;10.98;;;13.10;99.90;;;;;;4018518;29;20052;-92
2023/01/04 12:05:22;;;;;;;14.10;12.70;;;13.00;99.90;;;;;;4015234;29;20129;-91
2023/01/04 12:07:49;;;;;;;14.25;10.75;;;12.90;99.90;;;;;;4014797;29;20053;-91
2023/01/04 12:10:25;;;;;;;14.20;12.98;;;12.90;99.90;;;;;;4015110;29;20087;-92
2023/01/04 12:12:45;;;;;;;11.85;11.13;;;12.90;99.90;;;;;;4014968;29;20056;-91
2023/01/04 12:15:18;;;;;;;11.90;10.85;;;13.00;99.90;;;;;;4014802;29;20117;-90
2023/01/04 12:17:50;;;;;;;12.95;11.73;;;13.00;99.90;;;;;;4014955;29;20074;-91
2023/01/04 12:20:17;;;;;;;10.73;9.93;;;13.00;99.90;;;;;;4014881;29;20232;-91
2023/01/04 12:22:39;;;;;;;11.07;10.13;;;13.10;99.90;;;;;;4020938;29;20063;-92
2023/01/04 12:25:02;;;;;;;13.65;11.88;;;13.10;99.90;;;;;;4013492;29;20089;-91
2023/01/04 12:27:23;;;;;;;16.58;11.77;;;13.10;99.90;;;;;;4015015;29;20052;-91
2023/01/04 12:29:56;;;;;;;14.52;13.43;;;12.90;99.90;;;;;;4026900;29;20052;-92
2023/01/04 12:32:17;;;;;;;13.07;12.15;;;12.70;99.90;;;;;;4026449;29;20438;-91
2023/01/04 12:34:36;;;;;;;11.82;10.93;;;12.90;99.90;;;;;;4014925;29;20056;-92
2023/01/04 12:36:58;;;;;;;11.95;11.10;;;13.00;99.90;;;;;;4026878;29;20084;-90
2023/01/04 12:39:28;;;;;;;15.30;14.00;;;13.00;99.90;;;;;;4026319;29;20375;-91
2023/01/04 12:41:59;;;;;;;13.50;12.23;;;12.90;99.90;;;;;;4014691;29;20086;-85
2023/01/04 12:44:38;;;;;;;16.80;12.57;;;12.80;99.90;;;;;;4014365;29;20061;-85
2023/01/04 12:49:55;;;;;;;15.93;14.35;;;12.80;99.90;;;;;;4013906;29;20090;-85
2023/01/04 12:52:17;;;;;;;13.75;12.35;;;12.70;99.90;;;;;;4004558;29;20101;-85
2023/01/04 12:55:01;;;;;;;14.77;13.48;;;12.70;99.90;;;;;;4013819;29;20084;-85
2023/01/04 12:57:32;;;;;;;15.55;14.40;;;12.50;99.90;;;;;;4013876;29;20052;-85
2023/01/04 13:00:05;;;;;;;14.75;13.60;;;12.50;99.90;;;;;;4013634;29;20275;-85
2023/01/04 13:02:26;;;;;;;15.80;14.15;;;12.50;99.90;;;;;;4014787;29;20052;-85
2023/01/04 13:04:47;;;;;;;20.13;14.98;;;12.50;99.90;;;;;;4017270;29;20065;-85
2023/01/04 13:07:18;;;;;;;14.60;13.40;;;12.40;99.90;;;;;;4017221;29;20097;-85
2023/01/04 13:09:43;;;;;;;14.02;12.75;;;12.20;99.90;;;;;;4015681;29;20085;-85
2023/01/04 13:12:20;;;;;;;15.00;13.70;;;12.20;99.90;;;;;;4017205;29;20121;-85